Pagrindinis puslapis
METAR-TAF:

METAR-TAF

Oro uostai :

Šilongas, Indija

platuma: 25-42-13N, ilguma: 091-58-43E, Aukštis: 887 m

Dabartinis oras

Ataskaita buvo paskelbta 8 valandos ir 31 minutes, ne 07:30 UTC
Vėjas 2 kt iš Šiaurės Rytų
Temperatūra 22°C
Drėgmė 65%
Slėgis 1016 hPa
Matomumas: 4500 m
Išsisklaidę debesys ne aukštis 2000 ft
Mažai debesys ne aukštis 2500 ft, Liūtiniai kamuoliniai debesys.
migla

METAR: VEBI 190730Z 05002KT 4500 HZ SCT020 FEW025CB 22/15 Q1016

Laikas: 21:31 (16:01 UTC)

Prognozė

Ataskaita buvo paskelbta 8 valandos ir 1 minutes, ne 08:00 UTC
Prognozė galioja nuo 19 metu 09 UTC su 19 metu 18 UTC
Vėjas 4 kt iš Šiaurės Vakarų
Matomumas: 5000 m
Išsisklaidę debesys ne aukštis 2000 ft
Išsisklaidę debesys ne aukštis 10000 ft
migla
Tapsmas
nuo 19 metu 11 UTC su 19 metu 13 UTC
Vėjas kt iš Šiaurės
Matomumas: 3000 m
Išsisklaidę debesys ne aukštis 1800 ft
rūkana

TAF: VEBI 190800Z 1909/1918 32004KT 5000 HZ SCT020 SCT100 BECMG 1911/1913 00000KT 3000 BR SCT018 BKN

Orai ataskaitas ir orų prognozės (METAR, TAF).

turimą stotys yra geltonos ir raudonos taškus žemėlapyje.

Perkelti pele per norėdami pamatyti stoties vardą.

Tada spustelėkite, norėdami matyti oro stebėjimo ir prognozės.

Norėdami pakeisti žemėlapį: spustelėkite ant žalios mygtukų su juodo kryžiaus žemyn,; žalią mygtuką su brūkšneliu, jei norite nutolinti; arba žalių rodyklių gretimoms žemėlapius.


METAR-TAF: